createdAt,value
2024-03-05T00:00:13.930Z,12.30
2024-03-05T00:03:02.376Z,10.48
2024-03-05T00:05:31.145Z,12.13
2024-03-05T00:07:59.683Z,9.95
2024-03-05T00:10:27.975Z,13.25
2024-03-05T00:12:56.492Z,11.68
2024-03-05T00:15:24.517Z,8.02
2024-03-05T00:17:52.893Z,8.90
2024-03-05T00:20:21.014Z,12.07
2024-03-05T00:22:50.173Z,12.30
2024-03-05T00:25:18.899Z,19.02
2024-03-05T00:27:47.329Z,8.27
2024-03-05T00:30:15.868Z,11.00
2024-03-05T00:32:44.395Z,15.32
2024-03-05T00:35:12.700Z,8.48
2024-03-05T00:37:42.086Z,5.85
2024-03-05T00:40:10.697Z,9.45
2024-03-05T00:42:39.481Z,6.30
2024-03-05T00:45:08.837Z,10.43
2024-03-05T00:47:38.162Z,5.18
2024-03-05T00:50:06.866Z,6.75
2024-03-05T00:52:35.784Z,8.00
2024-03-05T00:55:07.273Z,10.80
2024-03-05T00:57:36.459Z,16.83
2024-03-05T01:00:06.792Z,17.88
2024-03-05T01:02:35.327Z,9.02
2024-03-05T01:05:06.671Z,12.77
2024-03-05T01:07:35.098Z,12.65
2024-03-05T01:10:03.464Z,7.07
2024-03-05T01:12:31.977Z,4.45
2024-03-05T01:15:00.401Z,7.63
2024-03-05T01:17:28.950Z,9.05
2024-03-05T01:19:57.570Z,8.00
2024-03-05T01:22:26.404Z,11.32
2024-03-05T01:24:54.467Z,9.95
2024-03-05T01:27:23.300Z,8.35
2024-03-05T01:29:51.557Z,14.70
2024-03-05T01:32:20.633Z,15.52
2024-03-05T01:34:50.134Z,12.93
2024-03-05T01:37:18.709Z,16.67
2024-03-05T01:39:46.846Z,15.27
2024-03-05T01:42:15.184Z,14.80
2024-03-05T01:44:43.526Z,15.85
2024-03-05T01:47:11.944Z,21.75
2024-03-05T01:49:40.423Z,19.70
2024-03-05T01:52:09.122Z,17.73
2024-03-05T01:54:37.229Z,16.27
2024-03-05T01:57:06.416Z,20.08
2024-03-05T01:59:34.836Z,13.20
2024-03-05T02:02:04.658Z,13.25
2024-03-05T02:04:33.620Z,14.80
2024-03-05T02:07:06.921Z,14.00
2024-03-05T02:09:34.946Z,19.17
2024-03-05T02:12:04.258Z,15.30
2024-03-05T02:14:32.929Z,15.50
2024-03-05T02:17:02.244Z,29.38
2024-03-05T02:19:30.548Z,11.57
2024-03-05T02:22:04.658Z,12.18
2024-03-05T02:24:33.189Z,14.35
2024-03-05T02:27:04.012Z,9.93
2024-03-05T04:17:46.974Z,11.02
2024-03-05T04:20:16.642Z,7.47
2024-03-05T04:22:44.975Z,12.98
2024-03-05T04:25:15.156Z,6.57
2024-03-05T04:27:47.663Z,13.13
2024-03-05T04:30:16.930Z,7.13
2024-03-05T04:32:58.165Z,16.73
2024-03-05T04:35:31.280Z,5.93
2024-03-05T04:37:59.630Z,10.15
2024-03-05T04:40:28.420Z,15.48
2024-03-05T04:42:57.160Z,5.55
2024-03-05T04:45:26.832Z,8.32
2024-03-05T04:47:56.029Z,7.60
2024-03-05T04:50:24.390Z,5.75
2024-03-05T04:52:54.520Z,12.90
2024-03-05T04:55:25.086Z,13.02
2024-03-05T04:57:53.462Z,9.18
2024-03-05T05:00:22.659Z,12.43
2024-03-05T05:02:53.001Z,14.95
2024-03-05T05:05:27.439Z,16.70
2024-03-05T05:07:58.159Z,13.02
2024-03-05T05:10:27.471Z,13.65
2024-03-05T05:12:55.943Z,15.93
2024-03-05T05:15:25.263Z,16.48
2024-03-05T05:17:54.055Z,9.68
2024-03-05T05:20:23.326Z,7.38
2024-03-05T05:22:51.613Z,7.25
2024-03-05T05:25:21.631Z,13.13
2024-03-05T05:27:50.009Z,8.90
2024-03-05T05:30:19.883Z,8.10
2024-03-05T05:32:49.360Z,15.93
2024-03-05T05:35:18.503Z,9.15
2024-03-05T05:37:46.591Z,12.95
2024-03-05T05:40:21.050Z,11.35
2024-03-05T05:45:20.298Z,15.13
2024-03-05T05:47:53.418Z,9.85
2024-03-05T05:50:30.705Z,12.15
2024-03-05T05:52:59.872Z,15.10
2024-03-05T05:55:29.964Z,12.25
2024-03-05T05:57:58.815Z,18.75
2024-03-05T06:00:38.464Z,11.57
2024-03-05T06:03:10.659Z,14.93
2024-03-05T06:05:40.206Z,14.10
2024-03-05T06:08:12.776Z,6.28
2024-03-05T06:10:47.592Z,9.80
2024-03-05T06:13:16.305Z,12.60
2024-03-05T06:15:45.065Z,12.93
2024-03-05T06:18:13.660Z,6.15
2024-03-05T06:20:42.115Z,12.88
2024-03-05T06:23:12.932Z,13.75
2024-03-05T06:25:41.513Z,18.48
2024-03-05T06:28:11.061Z,6.18
2024-03-05T06:30:39.587Z,10.32
2024-03-05T06:33:10.257Z,15.05
2024-03-05T06:35:39.779Z,12.98
2024-03-05T06:38:10.008Z,14.27
2024-03-05T06:40:38.833Z,16.02
2024-03-05T06:43:14.543Z,9.45
2024-03-05T06:45:44.547Z,18.60
2024-03-05T06:48:17.758Z,16.63
2024-03-05T06:50:53.449Z,16.40
2024-03-05T06:53:42.323Z,8.18
2024-03-05T06:56:29.625Z,12.60
2024-03-05T06:58:59.610Z,16.60
2024-03-05T07:01:29.919Z,9.05
2024-03-05T07:03:58.190Z,7.82
2024-03-05T07:06:26.560Z,9.60
2024-03-05T07:08:56.786Z,17.73
2024-03-05T07:11:28.413Z,11.27
2024-03-05T07:13:57.028Z,16.40
2024-03-05T07:16:25.778Z,8.88
2024-03-05T07:18:55.709Z,9.60
2024-03-05T07:21:26.043Z,8.98
2024-03-05T07:23:55.736Z,14.63
2024-03-05T07:26:25.455Z,22.08
2024-03-05T07:28:54.113Z,11.88
2024-03-05T07:31:25.657Z,20.50
2024-03-05T07:33:54.099Z,17.38
2024-03-05T07:36:22.820Z,15.85
2024-03-05T07:38:51.156Z,17.27
2024-03-05T07:41:29.601Z,12.63
2024-03-05T07:44:05.013Z,17.20
2024-03-05T07:46:35.443Z,16.13
2024-03-05T07:49:04.094Z,12.25
2024-03-05T07:51:41.116Z,10.40
2024-03-05T07:54:14.610Z,14.52
2024-03-05T07:56:44.593Z,10.68
2024-03-05T07:59:13.319Z,14.23
2024-03-05T08:01:42.068Z,20.33
2024-03-05T08:04:10.879Z,10.85
2024-03-05T08:06:39.426Z,24.05
2024-03-05T08:09:08.192Z,15.70
2024-03-05T08:11:37.555Z,17.25
2024-03-05T08:14:09.077Z,12.80
2024-03-05T08:16:40.263Z,18.40
2024-03-05T08:19:09.810Z,14.63
2024-03-05T08:21:38.482Z,16.33
2024-03-05T08:24:07.952Z,13.52
2024-03-05T08:26:36.410Z,20.35
2024-03-05T08:29:05.269Z,21.33
2024-03-05T08:31:33.955Z,17.13
2024-03-05T08:34:05.849Z,14.85
2024-03-05T08:36:38.427Z,12.77
2024-03-05T08:39:14.261Z,17.80
2024-03-05T08:41:45.969Z,17.77
2024-03-05T08:44:15.630Z,16.15
2024-03-05T08:46:44.037Z,15.88
2024-03-05T08:49:12.893Z,10.40
2024-03-05T08:51:42.183Z,12.15
2024-03-05T08:54:10.435Z,24.00
2024-03-05T08:56:41.034Z,9.88
2024-03-05T08:59:09.171Z,14.02
2024-03-05T09:01:37.663Z,14.00
2024-03-05T09:04:08.795Z,13.07
2024-03-05T09:06:38.404Z,19.17
2024-03-05T09:09:07.174Z,17.15
2024-03-05T09:11:36.536Z,12.40
2024-03-05T09:14:04.806Z,22.48
2024-03-05T09:16:34.120Z,19.45
2024-03-05T09:19:02.134Z,13.52
2024-03-05T09:21:33.612Z,21.42
2024-03-05T09:24:01.900Z,14.57
2024-03-05T09:26:31.311Z,8.98
2024-03-05T09:28:59.377Z,16.55
2024-03-05T09:31:28.960Z,13.63
2024-03-05T09:33:57.798Z,13.68
2024-03-05T09:36:26.295Z,16.42
2024-03-05T09:38:54.357Z,14.98
2024-03-05T09:41:23.732Z,17.70
2024-03-05T09:43:54.034Z,12.35
2024-03-05T09:46:23.792Z,11.13
2024-03-05T09:48:52.271Z,15.77
2024-03-05T09:51:23.589Z,11.55
2024-03-05T09:53:53.297Z,14.43
2024-03-05T09:56:21.955Z,23.95
2024-03-05T09:58:50.268Z,19.17
2024-03-05T10:01:19.183Z,11.50
2024-03-05T10:03:49.571Z,11.38
2024-03-05T10:06:18.054Z,11.25
2024-03-05T10:08:46.271Z,9.02
2024-03-05T10:11:15.423Z,11.43
2024-03-05T10:13:43.385Z,11.60
2024-03-05T10:16:22.006Z,17.65
2024-03-05T10:18:54.036Z,15.40
2024-03-05T10:21:23.974Z,10.32
2024-03-05T10:24:05.483Z,13.90
2024-03-05T10:26:35.688Z,16.45
2024-03-05T10:29:11.704Z,15.40
2024-03-05T10:31:43.544Z,11.52
2024-03-05T10:34:11.608Z,8.52
2024-03-05T10:36:41.529Z,12.60
2024-03-05T10:39:10.212Z,7.40
2024-03-05T10:41:47.185Z,7.60
2024-03-05T10:44:19.935Z,12.82
2024-03-05T10:46:50.705Z,5.55
2024-03-05T10:49:21.371Z,16.75
2024-03-05T10:51:52.945Z,5.90
2024-03-05T10:54:23.091Z,5.75
2024-03-05T10:56:53.666Z,5.68
2024-03-05T10:59:40.496Z,7.22
2024-03-05T11:02:14.104Z,8.13
2024-03-05T11:04:45.582Z,13.45
2024-03-05T11:07:18.223Z,6.03
2024-03-05T11:09:48.919Z,7.40
2024-03-05T11:12:20.717Z,7.53
2024-03-05T11:14:50.777Z,7.57
2024-03-05T11:17:19.198Z,10.63
2024-03-05T11:19:49.432Z,9.27
2024-03-05T11:22:24.854Z,5.53
2024-03-05T11:24:56.965Z,10.88
2024-03-05T11:27:31.376Z,8.68
2024-03-05T11:30:13.672Z,6.65
2024-03-05T11:32:45.454Z,11.30
2024-03-05T11:35:14.917Z,10.57
2024-03-05T11:37:53.709Z,3.90
2024-03-05T11:40:33.675Z,11.30
2024-03-05T11:43:02.701Z,3.97
2024-03-05T11:45:50.318Z,6.90
2024-03-05T11:48:21.091Z,7.95
2024-03-05T11:50:52.624Z,6.18
2024-03-05T11:53:21.392Z,9.57
2024-03-05T11:55:53.688Z,8.18
2024-03-05T11:58:25.959Z,8.07
2024-03-05T12:01:04.074Z,6.80
2024-03-05T12:03:32.607Z,5.78
2024-03-05T12:06:01.791Z,14.50
2024-03-05T12:08:34.110Z,6.20
2024-03-05T12:11:05.797Z,7.32
2024-03-05T12:13:34.910Z,11.10
2024-03-05T12:16:11.423Z,9.27
2024-03-05T12:18:39.967Z,12.73
2024-03-05T12:21:08.612Z,12.88
2024-03-05T12:23:42.119Z,6.75
2024-03-05T12:26:13.208Z,10.45
2024-03-05T12:28:42.371Z,13.85
2024-03-05T12:31:10.825Z,7.72
2024-03-05T12:33:39.576Z,8.95
2024-03-05T12:36:09.091Z,8.20
2024-03-05T12:38:37.813Z,11.75
2024-03-05T12:41:06.090Z,24.25
2024-03-05T12:43:35.936Z,8.73
2024-03-05T12:46:05.161Z,13.98
2024-03-05T12:48:36.720Z,11.40
2024-03-05T12:51:05.579Z,13.77
2024-03-05T12:53:35.083Z,15.15
2024-03-05T12:56:04.618Z,6.40
2024-03-05T12:58:45.971Z,7.45
2024-03-05T13:01:16.961Z,9.00
2024-03-05T13:03:45.679Z,3.90
2024-03-05T13:06:14.011Z,7.28
2024-03-05T13:08:42.903Z,6.40
2024-03-05T13:11:11.234Z,9.65
2024-03-05T13:13:41.858Z,10.80
2024-03-05T13:16:10.281Z,7.35
2024-03-05T13:18:38.814Z,4.95
2024-03-05T13:21:07.502Z,6.72
2024-03-05T13:23:36.656Z,5.47
2024-03-05T13:26:05.638Z,6.75
2024-03-05T13:28:35.511Z,14.65
2024-03-05T13:31:07.461Z,8.98
2024-03-05T13:33:36.002Z,11.20
2024-03-05T13:36:04.381Z,7.63
2024-03-05T13:38:35.862Z,5.32
2024-03-05T13:41:04.815Z,10.40
2024-03-05T13:43:36.083Z,10.73
2024-03-05T13:46:05.673Z,4.60
2024-03-05T13:48:34.416Z,11.77
2024-03-05T13:51:04.254Z,10.63
2024-03-05T13:53:33.380Z,9.15
2024-03-05T13:56:01.523Z,7.13
2024-03-05T13:58:30.279Z,10.50
2024-03-05T14:01:02.088Z,7.30
2024-03-05T14:03:31.222Z,10.98
2024-03-05T14:06:00.950Z,12.32
2024-03-05T14:08:31.873Z,12.30
2024-03-05T14:11:04.956Z,7.82
2024-03-05T14:13:34.375Z,11.55
2024-03-05T14:16:07.821Z,8.63
2024-03-05T14:18:36.257Z,16.17
2024-03-05T14:21:06.458Z,8.85
2024-03-05T14:23:35.027Z,27.38
2024-03-05T14:26:06.134Z,18.38
2024-03-05T14:28:34.809Z,11.85
2024-03-05T14:31:06.442Z,10.50
2024-03-05T14:33:35.877Z,9.27
2024-03-05T14:36:06.760Z,10.60
2024-03-05T14:38:35.444Z,12.25
2024-03-05T14:41:04.320Z,19.20
2024-03-05T14:43:36.434Z,13.88
2024-03-05T14:46:04.695Z,18.08
2024-03-05T14:48:34.829Z,12.95
2024-03-05T14:51:02.971Z,12.20
2024-03-05T14:53:31.470Z,17.95
2024-03-05T14:55:59.637Z,12.93
2024-03-05T14:58:28.884Z,15.55
2024-03-05T15:00:57.060Z,10.18
2024-03-05T15:03:25.712Z,11.70
2024-03-05T15:05:54.021Z,14.68
2024-03-05T15:08:22.650Z,11.20
2024-03-05T15:10:50.878Z,12.05
2024-03-05T15:13:19.464Z,16.42
2024-03-05T15:15:49.478Z,14.55
2024-03-05T15:18:18.069Z,19.15
2024-03-05T15:20:47.481Z,15.18
2024-03-05T15:23:17.234Z,11.02
2024-03-05T15:25:47.323Z,18.73
2024-03-05T15:28:15.819Z,26.35
2024-03-05T15:30:45.610Z,38.63
2024-03-05T15:33:13.743Z,32.03
2024-03-05T15:35:42.248Z,32.35
2024-03-05T15:38:10.489Z,83.32
2024-03-05T15:40:40.186Z,168.90
2024-03-05T15:43:09.783Z,144.52
2024-03-05T15:45:40.024Z,83.00
2024-03-05T15:48:12.743Z,67.28
2024-03-05T15:50:43.117Z,57.58
2024-03-05T15:53:12.451Z,152.00
2024-03-05T15:55:46.619Z,141.98
2024-03-05T15:58:42.097Z,102.30
2024-03-05T16:01:12.478Z,80.93
2024-03-05T16:03:57.114Z,55.00
2024-03-05T16:06:31.894Z,63.63
2024-03-05T16:09:01.235Z,44.15
2024-03-05T16:11:32.708Z,29.23
2024-03-05T16:14:01.042Z,24.40
2024-03-05T16:16:29.615Z,17.60
2024-03-05T16:18:59.716Z,14.05
2024-03-05T16:21:29.652Z,20.05
2024-03-05T16:23:57.765Z,29.25
2024-03-05T16:26:26.322Z,19.67
2024-03-05T16:28:54.364Z,23.60
2024-03-05T16:31:23.195Z,25.63
2024-03-05T16:33:51.332Z,23.05
2024-03-05T16:36:20.824Z,18.15
2024-03-05T16:38:48.905Z,11.73
2024-03-05T16:41:17.450Z,17.13
2024-03-05T16:43:45.704Z,16.65
2024-03-05T16:46:15.784Z,20.15
2024-03-05T16:48:43.942Z,16.05
2024-03-05T16:51:14.166Z,14.30
2024-03-05T16:53:43.152Z,18.15
2024-03-05T16:56:11.641Z,18.52
2024-03-05T16:58:40.084Z,14.65
2024-03-05T17:01:13.934Z,18.58
2024-03-05T17:03:46.469Z,15.07
2024-03-05T17:06:21.356Z,14.05
2024-03-05T17:08:51.115Z,13.02
2024-03-05T17:11:21.982Z,13.27
2024-03-05T17:13:50.170Z,18.52
2024-03-05T17:16:20.436Z,16.05
2024-03-05T17:18:48.578Z,13.52
2024-03-05T17:21:19.136Z,13.65
2024-03-05T17:23:48.556Z,17.52
2024-03-05T17:26:17.667Z,14.95
2024-03-05T17:28:46.800Z,11.95
2024-03-05T17:31:15.447Z,17.77
2024-03-05T17:33:43.978Z,19.08
2024-03-05T17:36:12.471Z,22.80
2024-03-05T17:38:40.697Z,18.77
2024-03-05T17:41:09.417Z,18.33
2024-03-05T17:43:37.727Z,18.00
2024-03-05T17:46:06.538Z,20.27
2024-03-05T17:48:34.816Z,14.23
2024-03-05T17:51:04.039Z,21.23
2024-03-05T17:53:32.916Z,11.25
2024-03-05T17:56:03.162Z,15.40
2024-03-05T17:58:31.377Z,18.95
2024-03-05T18:00:59.984Z,16.77
2024-03-05T18:03:36.514Z,23.90
2024-03-05T18:06:05.834Z,13.85
2024-03-05T18:08:34.019Z,18.42
2024-03-05T18:11:02.753Z,21.80
2024-03-05T18:13:30.984Z,26.33
2024-03-05T18:15:59.396Z,16.20
2024-03-05T18:18:28.165Z,18.58
2024-03-05T18:20:57.074Z,18.75
2024-03-05T18:23:25.196Z,24.48
2024-03-05T18:25:54.297Z,14.60
2024-03-05T18:28:24.239Z,22.42
2024-03-05T18:30:56.133Z,13.65
2024-03-05T18:33:24.456Z,14.48
2024-03-05T18:35:53.403Z,16.75
2024-03-05T18:38:28.275Z,13.15
2024-03-05T18:41:01.520Z,19.60
2024-03-05T18:43:32.075Z,19.92
2024-03-05T18:46:02.197Z,22.13
2024-03-05T18:48:31.326Z,17.38
2024-03-05T18:51:00.300Z,16.35
2024-03-05T18:53:39.292Z,17.40
2024-03-05T18:56:13.533Z,21.83
2024-03-05T18:58:42.822Z,26.25
2024-03-05T19:01:13.265Z,23.98
2024-03-05T19:03:41.527Z,17.73
2024-03-05T19:06:11.775Z,100.38
2024-03-05T19:08:40.110Z,41.25
2024-03-05T19:11:10.909Z,37.92
2024-03-05T19:13:39.756Z,22.17
2024-03-05T19:16:08.538Z,17.90
2024-03-05T19:18:37.025Z,10.05
2024-03-05T19:21:06.962Z,11.95
2024-03-05T19:23:35.281Z,14.30
2024-03-05T19:26:04.069Z,11.18
2024-03-05T19:28:35.786Z,10.93
2024-03-05T19:33:35.517Z,13.23
2024-03-05T19:36:05.562Z,9.27
2024-03-05T19:38:33.840Z,12.48
2024-03-05T19:41:03.627Z,13.60
2024-03-05T19:43:37.360Z,12.77
2024-03-05T19:46:07.220Z,8.93
2024-03-05T19:48:35.702Z,11.70
2024-03-05T19:51:04.590Z,8.40
2024-03-05T19:53:32.814Z,16.67
2024-03-05T19:56:01.363Z,14.63
2024-03-05T19:58:30.008Z,20.55
2024-03-05T20:01:00.056Z,13.00
2024-03-05T20:03:29.884Z,12.82
2024-03-05T20:05:59.301Z,12.48
2024-03-05T20:08:29.814Z,16.95
2024-03-05T20:10:58.338Z,15.63
2024-03-05T20:13:27.118Z,11.98
2024-03-05T20:15:59.220Z,13.27
2024-03-05T20:18:29.136Z,12.75
2024-03-05T20:20:58.938Z,12.77
2024-03-05T20:23:27.669Z,14.95
2024-03-05T20:25:57.812Z,19.25
2024-03-05T20:28:26.002Z,18.10
2024-03-05T20:30:56.317Z,21.52
2024-03-05T20:33:24.684Z,20.25
2024-03-05T20:35:53.144Z,18.75
2024-03-05T20:38:23.299Z,21.63
2024-03-05T20:40:52.542Z,17.95
2024-03-05T20:43:20.652Z,25.15
2024-03-05T20:45:49.159Z,23.70
2024-03-05T20:48:17.402Z,19.40
2024-03-05T20:50:47.925Z,23.67
2024-03-05T20:53:23.702Z,18.40
2024-03-05T20:55:56.679Z,20.52
2024-03-05T20:58:24.804Z,23.35
2024-03-05T21:00:53.146Z,15.32
2024-03-05T21:03:23.456Z,25.52
2024-03-05T21:05:53.086Z,30.50
2024-03-05T21:08:21.493Z,22.23
2024-03-05T21:10:51.128Z,24.17
2024-03-05T21:13:26.122Z,22.38
2024-03-05T21:15:54.947Z,22.40
2024-03-05T21:18:23.064Z,20.15
2024-03-05T21:20:51.634Z,26.63
2024-03-05T21:23:20.426Z,26.35
2024-03-05T21:26:00.690Z,19.80
2024-03-05T21:28:37.105Z,17.67
2024-03-05T21:31:05.665Z,16.67
2024-03-05T21:33:33.853Z,15.30
2024-03-05T21:36:02.699Z,14.82
2024-03-05T21:38:32.095Z,16.13
2024-03-05T21:41:00.601Z,16.38
2024-03-05T21:43:28.788Z,11.02
2024-03-05T21:45:57.400Z,11.98
2024-03-05T21:48:25.508Z,12.50
2024-03-05T21:51:03.500Z,11.00
2024-03-05T21:53:37.724Z,15.10
2024-03-05T21:56:07.087Z,14.98
2024-03-05T21:58:35.386Z,16.38
2024-03-05T22:01:04.005Z,12.98
2024-03-05T22:03:32.113Z,13.02
2024-03-05T22:06:08.107Z,11.57
2024-03-05T22:08:40.826Z,8.30
2024-03-05T22:11:09.448Z,10.80
2024-03-05T22:13:37.868Z,7.50
2024-03-05T22:16:06.342Z,7.93
2024-03-05T22:18:34.617Z,14.18
2024-03-05T22:21:04.078Z,14.10
2024-03-05T22:23:33.121Z,9.10
2024-03-05T22:26:01.506Z,7.25
2024-03-05T22:28:31.671Z,14.98
2024-03-05T22:31:00.088Z,12.27
2024-03-05T22:33:28.246Z,13.63
2024-03-05T22:35:57.310Z,8.43
2024-03-05T22:38:25.491Z,11.95
2024-03-05T22:40:53.974Z,10.25
2024-03-05T22:43:21.995Z,10.18
2024-03-05T22:45:51.334Z,9.32
2024-03-05T22:48:19.409Z,6.65
2024-03-05T22:50:49.647Z,5.32
2024-03-05T22:53:17.958Z,6.63
2024-03-05T22:55:46.363Z,7.15
2024-03-05T22:58:14.422Z,4.38
2024-03-05T23:00:46.292Z,7.70
2024-03-05T23:03:15.558Z,10.40
2024-03-05T23:05:44.476Z,4.03
2024-03-05T23:08:13.307Z,4.93
2024-03-05T23:10:41.699Z,8.02
2024-03-05T23:13:09.843Z,4.25
2024-03-05T23:15:38.262Z,5.22
2024-03-05T23:18:06.864Z,6.07
2024-03-05T23:20:35.346Z,3.17
2024-03-05T23:23:03.819Z,6.78
2024-03-05T23:25:32.947Z,9.20
2024-03-05T23:28:02.762Z,4.53
2024-03-05T23:30:31.662Z,7.90
2024-03-05T23:32:59.836Z,7.78
2024-03-05T23:35:28.912Z,7.28
2024-03-05T23:37:57.014Z,3.72
2024-03-05T23:40:26.689Z,5.35
2024-03-05T23:42:54.696Z,3.30
2024-03-05T23:45:22.996Z,7.60
2024-03-05T23:47:51.921Z,5.43
2024-03-05T23:50:20.696Z,5.95
2024-03-05T23:52:48.822Z,4.20
2024-03-05T23:55:19.461Z,2.92
2024-03-05T23:57:47.374Z,4.05
